Time;durP1;ratioP1;P1;durP2;ratioP2;P2;SDS_P1;SDS_P2;PMS_P1;PMS_P2;Temp;Humidity;BMP_temperature;BMP_pressure;BME280_temperature;BME280_humidity;BME280_pressure;Samples;Min_cycle;Max_cycle;Signal;HPM_P1;HPM_P2
2023/07/24 00:01:18;;;;;;;4.38;3.40;;;;;;;;;;4989429;28;20044;-76
2023/07/24 00:03:44;;;;;;;4.93;3.40;;;;;;;;;;4978032;28;20027;-77
2023/07/24 00:06:10;;;;;;;4.68;3.22;;;;;;;;;;4994600;28;20013;-76
2023/07/24 00:08:37;;;;;;;4.00;3.40;;;;;;;;;;4976811;28;20027;-76
2023/07/24 00:11:05;;;;;;;4.13;3.33;;;;;;;;;;4988657;28;20015;-77
2023/07/24 00:13:31;;;;;;;3.35;2.92;;;;;;;;;;4969420;28;20031;-76
2023/07/24 00:15:58;;;;;;;4.53;3.63;;;;;;;;;;4975214;28;20019;-76
2023/07/24 00:18:24;;;;;;;3.55;2.72;;;;;;;;;;4975452;28;20026;-76
2023/07/24 00:20:52;;;;;;;3.97;3.15;;;;;;;;;;4984393;28;20089;-75
2023/07/24 00:23:19;;;;;;;7.43;3.95;;;;;;;;;;4980774;28;20051;-77
2023/07/24 00:25:47;;;;;;;3.83;3.30;;;;;;;;;;4967591;28;20046;-76
2023/07/24 00:28:18;;;;;;;4.05;3.33;;;;;;;;;;4974039;28;20030;-77
2023/07/24 00:30:45;;;;;;;3.85;3.20;;;;;;;;;;4977041;28;20069;-75
2023/07/24 00:33:13;;;;;;;5.05;3.35;;;;;;;;;;4982498;28;20023;-75
2023/07/24 00:35:39;;;;;;;3.90;2.92;;;;;;;;;;4975640;28;20023;-75
2023/07/24 00:38:06;;;;;;;4.63;3.38;;;;;;;;;;4976621;28;20030;-75
2023/07/24 00:40:34;;;;;;;4.88;2.85;;;;;;;;;;4975711;28;20109;-75
2023/07/24 00:43:00;;;;;;;3.63;2.80;;;;;;;;;;4985186;23;20026;-75
2023/07/24 00:45:26;;;;;;;3.80;3.40;;;;;;;;;;4962214;28;20019;-76
2023/07/24 00:47:52;;;;;;;4.28;2.97;;;;;;;;;;4950959;28;20483;-75
2023/07/24 00:50:22;;;;;;;5.07;3.08;;;;;;;;;;4953071;28;20074;-75
2023/07/24 00:52:57;;;;;;;5.03;3.65;;;;;;;;;;4954930;28;20058;-75
2023/07/24 00:55:23;;;;;;;4.30;3.30;;;;;;;;;;4965393;28;20023;-76
2023/07/24 00:57:50;;;;;;;4.30;3.38;;;;;;;;;;4952650;29;20030;-75
2023/07/24 01:00:16;;;;;;;4.55;3.17;;;;;;;;;;4949749;28;20026;-76
2023/07/24 01:02:50;;;;;;;7.47;3.45;;;;;;;;;;4955301;28;20024;-75
2023/07/24 01:05:17;;;;;;;4.18;3.15;;;;;;;;;;4959054;28;20014;-76
2023/07/24 01:07:43;;;;;;;4.55;3.60;;;;;;;;;;4954071;28;20035;-77
2023/07/24 01:10:09;;;;;;;3.63;3.20;;;;;;;;;;4952675;29;20427;-77
2023/07/24 01:12:42;;;;;;;3.45;3.05;;;;;;;;;;4960474;28;20109;-76
2023/07/24 01:15:22;;;;;;;5.10;3.80;;;;;;;;;;4952197;29;20066;-75
2023/07/24 01:17:50;;;;;;;4.50;3.30;;;;;;;;;;4963461;28;20077;-76
2023/07/24 01:20:17;;;;;;;3.83;3.30;;;;;;;;;;4957877;28;20286;-75
2023/07/24 01:23:02;;;;;;;4.32;3.53;;;;;;;;;;4955529;28;20603;-76
2023/07/24 01:25:32;;;;;;;3.50;3.08;;;;;;;;;;4956168;28;20442;-75
2023/07/24 01:28:00;;;;;;;5.20;3.72;;;;;;;;;;4945106;29;20019;-75
2023/07/24 01:30:26;;;;;;;7.43;3.70;;;;;;;;;;4960557;28;20052;-75
2023/07/24 01:32:55;;;;;;;6.55;3.83;;;;;;;;;;4953359;29;20106;-74
2023/07/24 01:35:22;;;;;;;3.97;2.83;;;;;;;;;;4952294;29;20558;-75
2023/07/24 01:37:48;;;;;;;3.22;2.92;;;;;;;;;;4949648;28;20028;-75
2023/07/24 01:40:15;;;;;;;3.72;3.33;;;;;;;;;;4949647;28;20106;-74
2023/07/24 01:42:41;;;;;;;4.22;3.30;;;;;;;;;;4953529;28;20027;-77
2023/07/24 01:45:08;;;;;;;3.40;2.97;;;;;;;;;;4952134;28;20027;-76
2023/07/24 01:47:40;;;;;;;3.47;3.17;;;;;;;;;;4952148;28;20074;-76
2023/07/24 01:50:07;;;;;;;5.50;3.90;;;;;;;;;;4952637;28;20199;-76
2023/07/24 01:52:33;;;;;;;4.50;3.47;;;;;;;;;;4951222;29;20031;-76
2023/07/24 01:55:01;;;;;;;9.32;3.80;;;;;;;;;;4951803;28;20027;-76
2023/07/24 01:57:27;;;;;;;6.60;3.28;;;;;;;;;;4952167;28;20019;-76
2023/07/24 01:59:53;;;;;;;4.97;3.63;;;;;;;;;;4960243;28;20031;-76
2023/07/24 02:02:20;;;;;;;5.40;3.80;;;;;;;;;;4953069;28;20023;-75
2023/07/24 02:04:48;;;;;;;4.38;3.60;;;;;;;;;;4968359;28;20026;-76
2023/07/24 02:07:14;;;;;;;3.97;3.47;;;;;;;;;;4952271;29;20402;-76
2023/07/24 02:09:40;;;;;;;5.05;3.30;;;;;;;;;;4951547;28;20085;-76
2023/07/24 02:12:06;;;;;;;4.30;3.60;;;;;;;;;;4954042;28;20463;-76
2023/07/24 02:14:38;;;;;;;3.65;2.95;;;;;;;;;;4954764;28;20046;-77
2023/07/24 02:17:06;;;;;;;3.47;3.17;;;;;;;;;;4951523;29;20106;-76
2023/07/24 02:19:35;;;;;;;3.60;3.30;;;;;;;;;;4963443;28;20038;-76
2023/07/24 02:22:03;;;;;;;4.05;3.00;;;;;;;;;;4963481;28;20070;-76
2023/07/24 02:24:30;;;;;;;4.60;3.42;;;;;;;;;;4952391;28;20106;-75
2023/07/24 02:26:58;;;;;;;5.03;3.50;;;;;;;;;;4953453;28;20523;-75
2023/07/24 02:29:24;;;;;;;7.03;3.88;;;;;;;;;;4953354;28;20027;-75
2023/07/24 02:31:53;;;;;;;6.00;3.80;;;;;;;;;;4948124;29;20043;-75
2023/07/24 02:34:25;;;;;;;5.38;3.72;;;;;;;;;;4946693;29;20027;-76
2023/07/24 02:36:54;;;;;;;7.97;3.58;;;;;;;;;;4967380;28;20062;-76
2023/07/24 02:39:20;;;;;;;5.75;3.85;;;;;;;;;;4951769;29;20122;-76
2023/07/24 02:41:49;;;;;;;5.15;3.17;;;;;;;;;;4952092;29;20168;-76
2023/07/24 02:44:15;;;;;;;4.78;2.97;;;;;;;;;;4949241;28;20034;-76
2023/07/24 02:46:43;;;;;;;3.60;3.30;;;;;;;;;;4959415;28;20031;-76
2023/07/24 02:49:12;;;;;;;9.10;4.00;;;;;;;;;;4957192;28;20110;-75
2023/07/24 02:51:41;;;;;;;5.47;3.67;;;;;;;;;;4961712;28;20118;-75
2023/07/24 02:54:07;;;;;;;4.25;3.10;;;;;;;;;;4948705;23;20067;-74
2023/07/24 02:56:35;;;;;;;4.32;3.42;;;;;;;;;;4933459;29;20073;-74
2023/07/24 02:59:01;;;;;;;3.40;2.90;;;;;;;;;;4934060;29;20039;-75
2023/07/24 03:01:30;;;;;;;8.38;3.63;;;;;;;;;;4934185;29;20031;-74
2023/07/24 03:03:58;;;;;;;6.28;3.75;;;;;;;;;;4929241;29;20561;-74
2023/07/24 03:06:27;;;;;;;4.60;3.55;;;;;;;;;;4935753;29;20562;-74
2023/07/24 03:08:53;;;;;;;9.38;7.32;;;;;;;;;;4937016;29;20015;-74
2023/07/24 03:11:19;;;;;;;4.80;3.20;;;;;;;;;;4936808;29;20023;-76
2023/07/24 03:13:45;;;;;;;4.40;3.95;;;;;;;;;;4936730;29;20036;-75
2023/07/24 03:16:12;;;;;;;8.52;5.00;;;;;;;;;;4935830;29;20154;-76
2023/07/24 03:18:38;;;;;;;3.97;3.20;;;;;;;;;;4935568;29;20540;-75
2023/07/24 03:21:04;;;;;;;5.10;3.38;;;;;;;;;;4935424;29;20119;-75
2023/07/24 03:23:30;;;;;;;6.05;3.80;;;;;;;;;;4934571;29;20032;-75
2023/07/24 03:25:59;;;;;;;5.55;4.07;;;;;;;;;;4929079;29;20444;-76
2023/07/24 03:28:27;;;;;;;4.88;3.60;;;;;;;;;;4936599;29;20103;-76
2023/07/24 03:30:53;;;;;;;5.50;3.97;;;;;;;;;;4936821;29;20492;-76
2023/07/24 03:33:29;;;;;;;5.25;3.55;;;;;;;;;;4935019;29;20699;-75
2023/07/24 03:35:55;;;;;;;4.40;3.50;;;;;;;;;;4935450;29;20086;-75
2023/07/24 03:38:24;;;;;;;4.97;3.30;;;;;;;;;;4936481;29;20050;-77
2023/07/24 03:40:53;;;;;;;4.80;3.58;;;;;;;;;;4935121;29;20051;-78
2023/07/24 03:45:50;;;;;;;;;;;;;;;;;;4935224;29;20138;-75
2023/07/24 03:48:17;;;;;;;5.28;3.95;;;;;;;;;;4936040;29;19990;-75
2023/07/24 03:50:48;;;;;;;4.65;3.22;;;;;;;;;;4935288;29;20032;-76
2023/07/24 03:53:15;;;;;;;4.40;3.50;;;;;;;;;;4921512;29;20023;-75
2023/07/24 03:55:41;;;;;;;4.45;3.78;;;;;;;;;;4925592;29;20032;-76
2023/07/24 03:58:10;;;;;;;6.57;4.20;;;;;;;;;;4917841;29;20020;-75
2023/07/24 04:00:39;;;;;;;4.40;3.70;;;;;;;;;;4919949;29;20078;-78
2023/07/24 04:03:08;;;;;;;6.00;3.28;;;;;;;;;;4936550;29;20023;-78
2023/07/24 04:05:35;;;;;;;5.47;3.78;;;;;;;;;;4926893;29;20492;-78
2023/07/24 04:08:03;;;;;;;6.07;3.80;;;;;;;;;;4927705;29;20060;-78
2023/07/24 04:10:30;;;;;;;9.55;3.72;;;;;;;;;;4937665;29;20031;-77
2023/07/24 04:12:57;;;;;;;4.80;3.33;;;;;;;;;;4929502;29;20079;-78
2023/07/24 04:15:25;;;;;;;5.00;3.60;;;;;;;;;;4922952;29;20024;-77
2023/07/24 04:17:52;;;;;;;4.55;3.50;;;;;;;;;;4928500;29;20027;-77
2023/07/24 04:20:23;;;;;;;4.18;3.25;;;;;;;;;;4935040;29;20047;-77
2023/07/24 04:22:54;;;;;;;7.38;3.67;;;;;;;;;;4926169;29;20035;-77
2023/07/24 04:25:35;;;;;;;6.00;3.88;;;;;;;;;;4926515;29;20024;-76
2023/07/24 04:28:09;;;;;;;5.25;3.63;;;;;;;;;;4948013;28;20024;-78
2023/07/24 04:30:35;;;;;;;9.15;3.58;;;;;;;;;;4937064;29;20038;-78
2023/07/24 04:33:04;;;;;;;6.15;3.35;;;;;;;;;;4937374;23;20023;-75
2023/07/24 04:35:30;;;;;;;6.15;4.07;;;;;;;;;;4943961;28;20047;-75
2023/07/24 04:38:01;;;;;;;8.85;4.45;;;;;;;;;;4973201;28;20038;-78
2023/07/24 04:40:27;;;;;;;;;;;;;;;;;;4949694;29;20656;-75
2023/07/24 04:43:03;;;;;;;5.03;3.67;;;;;;;;;;4946140;28;19921;-75
2023/07/24 04:45:29;;;;;;;7.05;3.80;;;;;;;;;;4947216;28;20074;-74
2023/07/24 04:47:55;;;;;;;4.50;3.17;;;;;;;;;;4972576;28;20106;-74
2023/07/24 04:50:21;;;;;;;5.45;4.20;;;;;;;;;;4973369;28;20022;-73
2023/07/24 04:52:47;;;;;;;5.43;3.95;;;;;;;;;;4973708;28;20560;-74
2023/07/24 04:55:13;;;;;;;5.13;4.10;;;;;;;;;;4957204;28;20101;-74
2023/07/24 04:57:39;;;;;;;5.38;3.85;;;;;;;;;;4964546;28;20107;-74
2023/07/24 05:00:05;;;;;;;7.50;3.95;;;;;;;;;;4961534;28;20147;-75
2023/07/24 05:02:31;;;;;;;8.60;3.75;;;;;;;;;;4944818;29;20067;-75
2023/07/24 05:04:57;;;;;;;6.40;3.95;;;;;;;;;;4944927;29;20027;-75
2023/07/24 05:07:23;;;;;;;8.05;4.32;;;;;;;;;;4960943;28;20018;-75
2023/07/24 05:09:49;;;;;;;6.90;3.72;;;;;;;;;;4957664;28;20035;-75
2023/07/24 05:12:15;;;;;;;3.58;3.28;;;;;;;;;;4958359;28;20030;-75
2023/07/24 05:14:42;;;;;;;4.07;3.33;;;;;;;;;;4944750;29;20027;-76
2023/07/24 05:17:08;;;;;;;5.43;3.35;;;;;;;;;;4949395;28;20398;-75
2023/07/24 05:19:34;;;;;;;3.92;3.28;;;;;;;;;;4962581;28;20082;-76
2023/07/24 05:22:00;;;;;;;8.02;3.67;;;;;;;;;;4961288;28;20110;-76
2023/07/24 05:24:26;;;;;;;4.35;3.90;;;;;;;;;;4943257;28;20067;-74
2023/07/24 05:26:52;;;;;;;6.18;4.10;;;;;;;;;;4947399;28;20121;-74
2023/07/24 05:29:18;;;;;;;5.55;3.53;;;;;;;;;;4949734;29;20027;-74
2023/07/24 05:31:44;;;;;;;4.10;3.70;;;;;;;;;;4939163;29;20035;-74
2023/07/24 05:34:10;;;;;;;5.90;3.40;;;;;;;;;;4936362;29;20023;-74
2023/07/24 05:36:36;;;;;;;4.63;3.80;;;;;;;;;;4944302;28;20778;-74
2023/07/24 05:39:02;;;;;;;4.18;3.50;;;;;;;;;;4957139;28;20082;-74
2023/07/24 05:41:28;;;;;;;5.05;3.67;;;;;;;;;;4963673;28;20447;-74
2023/07/24 05:44:12;;;;;;;4.72;3.58;;;;;;;;;;4952646;28;20023;-74
2023/07/24 05:46:38;;;;;;;6.20;3.88;;;;;;;;;;4954639;29;20498;-75
2023/07/24 05:49:04;;;;;;;7.43;3.90;;;;;;;;;;4957505;28;20049;-74
2023/07/24 05:51:30;;;;;;;5.43;4.05;;;;;;;;;;4973001;28;20569;-74
2023/07/24 05:53:56;;;;;;;8.02;4.20;;;;;;;;;;4952174;28;20031;-74
2023/07/24 05:56:22;;;;;;;6.57;4.43;;;;;;;;;;4965028;28;20019;-74
2023/07/24 05:58:48;;;;;;;4.82;4.00;;;;;;;;;;4965065;28;20028;-72
2023/07/24 06:01:14;;;;;;;4.80;3.97;;;;;;;;;;4957748;28;20479;-72
2023/07/24 06:03:41;;;;;;;6.90;3.78;;;;;;;;;;4950460;29;20035;-73
2023/07/24 06:06:07;;;;;;;6.40;4.20;;;;;;;;;;4952903;28;20024;-72
2023/07/24 06:08:33;;;;;;;6.22;4.50;;;;;;;;;;4952882;28;20093;-73
2023/07/24 06:10:59;;;;;;;6.43;4.53;;;;;;;;;;4953175;28;20024;-73
2023/07/24 06:13:25;;;;;;;5.00;3.83;;;;;;;;;;4953015;28;20111;-74
2023/07/24 06:15:52;;;;;;;4.95;3.67;;;;;;;;;;4952932;28;20023;-74
2023/07/24 06:18:18;;;;;;;6.05;3.88;;;;;;;;;;4934199;29;20027;-74
2023/07/24 06:20:45;;;;;;;5.68;4.05;;;;;;;;;;4951083;28;20019;-74
2023/07/24 06:23:11;;;;;;;5.85;3.92;;;;;;;;;;4952750;28;20037;-74
2023/07/24 06:25:37;;;;;;;5.38;3.85;;;;;;;;;;4952863;29;20027;-73
2023/07/24 06:28:03;;;;;;;5.10;4.43;;;;;;;;;;4935445;29;20121;-74
2023/07/24 06:30:29;;;;;;;5.57;3.75;;;;;;;;;;4951144;29;20023;-73
2023/07/24 06:32:55;;;;;;;7.40;4.30;;;;;;;;;;4935236;29;20067;-75
2023/07/24 06:35:21;;;;;;;5.68;3.80;;;;;;;;;;4952230;28;20038;-75
2023/07/24 06:37:47;;;;;;;6.60;4.30;;;;;;;;;;4956011;28;20090;-74
2023/07/24 06:40:13;;;;;;;5.22;3.95;;;;;;;;;;4956550;28;20023;-75
2023/07/24 06:42:39;;;;;;;10.63;5.03;;;;;;;;;;4956439;29;20059;-74
2023/07/24 06:45:06;;;;;;;6.65;4.82;;;;;;;;;;4956661;28;20103;-74
2023/07/24 06:47:31;;;;;;;7.45;4.50;;;;;;;;;;4956849;28;20055;-74
2023/07/24 06:49:57;;;;;;;6.90;4.43;;;;;;;;;;4954471;28;20431;-74
2023/07/24 06:52:24;;;;;;;6.68;4.03;;;;;;;;;;4939133;29;20035;-74
2023/07/24 06:54:50;;;;;;;6.70;4.53;;;;;;;;;;4938381;29;20027;-74
2023/07/24 06:57:15;;;;;;;6.63;3.85;;;;;;;;;;4937707;29;20020;-75
2023/07/24 06:59:41;;;;;;;7.40;4.30;;;;;;;;;;4937407;29;20396;-75
2023/07/24 07:02:07;;;;;;;6.35;4.15;;;;;;;;;;4937135;29;20032;-75
2023/07/24 07:04:33;;;;;;;9.73;5.00;;;;;;;;;;4938190;29;20035;-75
2023/07/24 07:06:59;;;;;;;4.80;4.30;;;;;;;;;;4937002;29;20059;-74
2023/07/24 07:09:25;;;;;;;6.28;4.22;;;;;;;;;;4919996;29;20256;-75
2023/07/24 07:11:51;;;;;;;6.20;4.05;;;;;;;;;;4937096;29;20039;-74
2023/07/24 07:14:17;;;;;;;4.90;3.97;;;;;;;;;;4936796;29;20415;-74
2023/07/24 07:16:44;;;;;;;5.47;4.20;;;;;;;;;;4936716;29;20558;-75
2023/07/24 07:19:10;;;;;;;5.25;3.60;;;;;;;;;;4919780;29;20020;-75
2023/07/24 07:21:36;;;;;;;4.68;4.18;;;;;;;;;;4937106;29;20086;-75
2023/07/24 07:24:02;;;;;;;5.25;4.07;;;;;;;;;;4936686;29;20058;-74
2023/07/24 07:26:29;;;;;;;6.13;4.43;;;;;;;;;;4937428;29;20023;-74
2023/07/24 07:28:55;;;;;;;5.22;4.72;;;;;;;;;;4937484;29;20167;-74
2023/07/24 07:31:21;;;;;;;5.20;4.13;;;;;;;;;;4938220;29;20036;-74
2023/07/24 07:33:48;;;;;;;4.97;4.20;;;;;;;;;;4937850;29;20035;-74
2023/07/24 07:36:14;;;;;;;5.72;3.97;;;;;;;;;;4937297;29;20031;-74
2023/07/24 07:38:40;;;;;;;5.70;4.07;;;;;;;;;;4936820;29;20233;-74
2023/07/24 07:41:07;;;;;;;5.85;4.03;;;;;;;;;;4936672;29;20032;-74
2023/07/24 07:43:34;;;;;;;4.55;4.13;;;;;;;;;;4936436;29;20054;-74
2023/07/24 07:46:00;;;;;;;5.03;4.40;;;;;;;;;;4919565;29;20175;-75
2023/07/24 07:48:26;;;;;;;5.35;4.10;;;;;;;;;;4935097;29;20472;-74
2023/07/24 07:50:52;;;;;;;6.80;3.83;;;;;;;;;;4936294;29;20055;-73
2023/07/24 07:53:19;;;;;;;4.80;4.30;;;;;;;;;;4935959;29;20031;-74
2023/07/24 07:55:45;;;;;;;3.88;3.50;;;;;;;;;;4936431;29;20028;-74
2023/07/24 07:58:11;;;;;;;4.32;3.90;;;;;;;;;;4935993;29;20028;-75
2023/07/24 08:00:39;;;;;;;5.57;4.47;;;;;;;;;;4936546;29;20032;-74
2023/07/24 08:03:05;;;;;;;5.72;4.10;;;;;;;;;;4936142;29;20031;-75
2023/07/24 08:05:32;;;;;;;5.10;4.22;;;;;;;;;;4935917;29;20052;-75
2023/07/24 08:07:58;;;;;;;5.47;4.05;;;;;;;;;;4935948;29;20193;-74
2023/07/24 08:10:24;;;;;;;4.22;3.78;;;;;;;;;;4936111;29;20539;-74
2023/07/24 08:12:50;;;;;;;4.70;4.30;;;;;;;;;;4935676;29;20032;-74
2023/07/24 08:15:16;;;;;;;5.60;4.13;;;;;;;;;;4935994;29;20024;-74
2023/07/24 08:17:42;;;;;;;4.05;3.75;;;;;;;;;;4935998;29;20412;-74
2023/07/24 08:20:08;;;;;;;4.65;3.45;;;;;;;;;;4935913;29;20504;-74
2023/07/24 08:22:34;;;;;;;5.70;4.05;;;;;;;;;;4918893;29;20032;-74
2023/07/24 08:25:00;;;;;;;6.57;3.72;;;;;;;;;;4936030;29;20122;-73
2023/07/24 08:27:26;;;;;;;4.22;3.83;;;;;;;;;;4935778;29;20428;-73
2023/07/24 08:29:55;;;;;;;4.78;3.95;;;;;;;;;;4936009;29;20078;-73
2023/07/24 08:32:21;;;;;;;5.40;4.32;;;;;;;;;;4918507;29;20023;-73
2023/07/24 08:34:47;;;;;;;4.50;4.10;;;;;;;;;;4935029;29;20406;-74
2023/07/24 08:37:13;;;;;;;4.45;3.85;;;;;;;;;;4947005;29;20051;-73
2023/07/24 08:39:39;;;;;;;4.75;4.25;;;;;;;;;;4954078;28;20020;-74
2023/07/24 08:42:09;;;;;;;6.40;3.78;;;;;;;;;;4936374;29;20031;-74
2023/07/24 08:44:35;;;;;;;;;;;;;;;;;;4954018;28;20027;-74
2023/07/24 08:47:01;;;;;;;4.45;4.05;;;;;;;;;;4953575;28;19998;-73
2023/07/24 08:49:30;;;;;;;4.72;4.22;;;;;;;;;;4949579;29;20691;-73
2023/07/24 08:51:56;;;;;;;4.25;3.85;;;;;;;;;;4934613;29;20038;-74
2023/07/24 08:54:24;;;;;;;5.70;4.47;;;;;;;;;;4933134;29;20032;-74
2023/07/24 08:56:51;;;;;;;5.43;4.38;;;;;;;;;;4933215;29;20020;-74
2023/07/24 08:59:17;;;;;;;6.05;4.65;;;;;;;;;;4933884;29;20047;-74
2023/07/24 09:01:44;;;;;;;6.30;4.43;;;;;;;;;;4934175;29;20039;-74
2023/07/24 09:04:10;;;;;;;4.85;4.30;;;;;;;;;;4934070;29;20027;-74
2023/07/24 09:06:36;;;;;;;4.28;3.88;;;;;;;;;;4934042;29;20090;-76
2023/07/24 09:09:03;;;;;;;5.63;4.18;;;;;;;;;;4934182;29;20028;-74
2023/07/24 09:11:29;;;;;;;7.07;4.70;;;;;;;;;;4933975;29;20032;-74
2023/07/24 09:13:55;;;;;;;5.70;4.75;;;;;;;;;;4933873;29;20046;-74
2023/07/24 09:16:22;;;;;;;5.32;4.25;;;;;;;;;;4933942;29;20472;-74
2023/07/24 09:18:48;;;;;;;5.65;4.43;;;;;;;;;;4916606;29;20571;-74
2023/07/24 09:21:14;;;;;;;6.63;4.22;;;;;;;;;;4917000;29;20508;-74
2023/07/24 09:23:43;;;;;;;5.07;4.20;;;;;;;;;;4933755;29;20043;-74
2023/07/24 09:26:09;;;;;;;5.57;4.00;;;35.50;26.90;;;;;;4933761;29;20024;-74
2023/07/24 09:28:36;;;;;;;5.60;4.70;;;35.00;27.50;;;;;;4933514;29;20102;-74
2023/07/24 09:31:03;;;;;;;7.43;5.18;;;34.40;29.20;;;;;;4933757;29;20028;-74
2023/07/24 09:36:10;;;;;;;9.68;6.72;;;34.00;29.90;;;;;;5068409;28;20516;-73
2023/07/24 09:38:37;;;;;;;8.15;5.97;;;34.10;30.90;;;;;;5068133;28;20551;-73
2023/07/24 09:41:04;;;;;;;7.40;6.43;;;34.20;30.90;;;;;;5068369;28;20029;-74
2023/07/24 09:43:30;;;;;;;9.25;6.13;;;34.00;31.50;;;;;;5067302;28;20074;-73
2023/07/24 09:45:57;;;;;;;6.53;5.82;;;33.90;30.90;;;;;;5068696;28;20427;-73
2023/07/24 09:48:24;;;;;;;7.07;5.88;;;33.70;31.40;;;;;;5068203;28;20024;-74
2023/07/24 09:50:54;;;;;;;8.65;5.95;;;33.40;31.80;;;;;;5068386;28;20044;-74
2023/07/24 09:53:22;;;;;;;9.20;6.15;;;33.40;32.00;;;;;;5069170;28;20028;-74
2023/07/24 09:55:51;;;;;;;7.65;6.10;;;33.30;32.40;;;;;;5067413;28;20150;-75
2023/07/24 09:58:18;;;;;;;6.35;5.50;;;33.30;32.10;;;;;;5068925;28;20052;-75
2023/07/24 10:00:45;;;;;;;6.13;5.20;;;33.30;32.50;;;;;;5070757;28;20029;-75
2023/07/24 10:03:11;;;;;;;6.28;5.40;;;33.00;32.00;;;;;;5071089;28;20507;-75
2023/07/24 10:05:37;;;;;;;8.23;5.70;;;32.80;32.30;;;;;;5070169;28;20032;-74
2023/07/24 10:08:03;;;;;;;6.70;5.57;;;32.40;33.20;;;;;;5067933;28;20492;-75
2023/07/24 10:10:32;;;;;;;7.05;5.50;;;32.30;33.50;;;;;;5068883;28;20025;-74
2023/07/24 10:12:58;;;;;;;8.23;5.68;;;32.20;34.10;;;;;;5067902;28;20024;-74
2023/07/24 10:15:24;;;;;;;7.53;5.50;;;32.30;34.10;;;;;;5066334;28;20035;-74
2023/07/24 10:18:05;;;;;;;10.50;5.30;;;32.40;34.50;;;;;;5066159;28;20494;-74
2023/07/24 10:20:38;;;;;;;8.87;5.40;;;32.30;34.30;;;;;;5066447;28;20507;-74
2023/07/24 10:23:09;;;;;;;7.78;5.53;;;32.70;33.40;;;;;;5067534;28;20483;-75
2023/07/24 10:25:43;;;;;;;5.70;5.03;;;32.80;33.60;;;;;;5067667;28;20111;-74
2023/07/24 10:28:11;;;;;;;6.35;5.10;;;33.00;32.90;;;;;;5066114;28;20028;-73
2023/07/24 10:30:41;;;;;;;6.97;5.30;;;33.00;33.30;;;;;;5067670;28;20395;-73
2023/07/24 10:33:17;;;;;;;7.47;5.53;;;33.10;33.70;;;;;;5067592;28;20024;-72
2023/07/24 10:35:45;;;;;;;8.90;5.57;;;32.80;33.70;;;;;;5067054;28;20025;-74
2023/07/24 10:38:13;;;;;;;11.38;6.15;;;32.40;34.10;;;;;;5066958;28;20103;-73
2023/07/24 10:40:40;;;;;;;10.13;6.03;;;;;;;;;;5067249;28;20032;-73
2023/07/24 10:43:10;;;;;;;7.72;6.22;;;;;;;;;;5065959;28;20021;-74
2023/07/24 10:45:39;;;;;;;12.10;7.57;;;;;;;;;;5064846;28;20041;-75
2023/07/24 10:48:05;;;;;;;14.88;13.07;;;;;;;;;;5052352;28;20032;-74
2023/07/24 10:50:38;;;;;;;15.55;11.43;;;;;;;;;;5052880;28;20419;-75
2023/07/24 10:53:04;;;;;;;15.43;12.20;;;;;;;;;;5054071;28;20025;-75
2023/07/24 10:55:42;;;;;;;16.45;11.38;;;;;;;;;;5055393;28;20025;-75
2023/07/24 10:58:09;;;;;;;9.27;6.47;;;;;;;;;;5055026;28;20028;-74
2023/07/24 11:00:35;;;;;;;9.02;5.82;;;;;;;;;;5055788;28;20059;-74
2023/07/24 11:03:01;;;;;;;8.48;6.22;;;;;;;;;;5056259;28;20400;-74
2023/07/24 11:05:27;;;;;;;9.55;6.15;;;;;;;;;;5057306;28;20083;-74
2023/07/24 11:07:54;;;;;;;8.27;5.85;;;;;;;;;;5066189;28;20083;-74
2023/07/24 11:10:21;;;;;;;10.50;6.20;;;;;;;;;;5057988;28;20029;-74
2023/07/24 11:12:47;;;;;;;9.05;6.63;;;;;;;;;;5053595;28;20032;-74
2023/07/24 11:15:14;;;;;;;7.15;5.72;;;;;;;;;;5053654;28;20041;-74
2023/07/24 11:17:42;;;;;;;7.35;6.20;;;;;;;;;;5053556;28;20024;-74
2023/07/24 11:20:08;;;;;;;7.50;6.35;;;;;;;;;;5053573;28;20429;-74
2023/07/24 11:22:34;;;;;;;11.05;5.88;;;;;;;;;;5053846;28;20021;-75
2023/07/24 11:27:38;;;;;;;9.38;6.80;;;;;;;;;;5011197;28;20042;-71
2023/07/24 11:30:04;;;;;;;10.50;7.05;;;;;;;;;;5012948;28;20405;-73
2023/07/24 11:32:30;;;;;;;9.43;6.45;;;;;;;;;;5013361;28;20022;-73
2023/07/24 11:34:57;;;;;;;8.82;6.15;;;;;;;;;;5013319;28;20548;-73
2023/07/24 11:37:23;;;;;;;12.65;6.40;;;;;;;;;;4993698;28;20019;-73
2023/07/24 11:39:56;;;;;;;10.02;6.85;;;;;;;;;;4993538;28;20053;-73
2023/07/24 11:42:22;;;;;;;9.75;6.57;;;;;;;;;;4993510;28;20478;-73
2023/07/24 11:44:48;;;;;;;12.80;6.72;;;;;;;;;;4993486;28;20125;-73
2023/07/24 11:47:14;;;;;;;11.70;6.20;;;;;;;;;;4993382;28;20109;-73
2023/07/24 11:49:47;;;;;;;7.43;6.00;;;;;;;;;;4993427;28;20109;-72
2023/07/24 11:52:13;;;;;;;7.97;6.53;;;;;;;;;;4993337;28;20096;-73
2023/07/24 11:54:39;;;;;;;11.55;6.15;;;;;;;;;;4993546;28;20042;-73
2023/07/24 11:57:15;;;;;;;9.25;6.20;;;;;;;;;;4992767;28;20259;-73
2023/07/24 11:59:41;;;;;;;9.00;6.40;;;;;;;;;;4993065;28;20022;-74
2023/07/24 12:02:11;;;;;;;10.95;6.30;;;;;;;;;;4991418;28;20030;-72
2023/07/24 12:04:37;;;;;;;9.77;6.20;;;;;;;;;;4992453;28;20053;-72
2023/07/24 12:07:12;;;;;;;10.00;6.43;;;;;;;;;;4990708;28;20029;-70
2023/07/24 12:09:38;;;;;;;7.50;6.70;;;;;;;;;;4992875;28;20030;-72
2023/07/24 12:12:05;;;;;;;8.45;6.55;;;;;;;;;;4993048;28;20057;-72
2023/07/24 12:14:31;;;;;;;8.05;6.47;;;;;;;;;;4991351;28;20022;-73
2023/07/24 12:17:01;;;;;;;7.90;6.30;;;;;;;;;;4992582;28;20023;-72
2023/07/24 12:19:27;;;;;;;10.15;6.55;;;;;;;;;;4992883;28;20045;-72
2023/07/24 12:21:53;;;;;;;12.43;6.93;;;;;;;;;;4992838;28;20482;-72
2023/07/24 12:24:19;;;;;;;11.88;7.22;;;;;;;;;;4975278;28;20022;-72
2023/07/24 12:26:45;;;;;;;10.95;7.32;;;;;;;;;;4992259;28;20532;-72
2023/07/24 12:29:11;;;;;;;9.68;7.22;;;;;;;;;;4992519;28;20053;-72
2023/07/24 12:31:38;;;;;;;10.30;7.20;;;;;;;;;;4992563;28;20491;-73
2023/07/24 12:34:04;;;;;;;8.82;6.85;;;;;;;;;;4990863;28;20646;-72
2023/07/24 12:36:29;;;;;;;11.00;7.65;;;;;;;;;;4990683;28;20038;-72
2023/07/24 12:38:55;;;;;;;8.90;6.30;;;;;;;;;;4990459;28;20030;-72
2023/07/24 12:41:21;;;;;;;10.15;7.38;;;;;;;;;;4992483;28;20022;-73
2023/07/24 12:43:47;;;;;;;17.10;7.60;;;;;;;;;;4991273;28;20033;-72
2023/07/24 12:46:13;;;;;;;11.93;7.78;;;;;;;;;;4992068;28;20026;-72
2023/07/24 12:48:39;;;;;;;12.15;7.22;;;;;;;;;;4992181;28;20026;-72
2023/07/24 12:51:05;;;;;;;9.88;8.27;;;;;;;;;;4992584;28;20052;-72
2023/07/24 12:53:31;;;;;;;10.65;8.23;;;;;;;;;;4992444;28;20072;-72
2023/07/24 12:55:57;;;;;;;11.50;8.40;;;;;;;;;;4986651;28;20039;-73
2023/07/24 12:58:23;;;;;;;9.38;6.90;;;;;;;;;;4987062;28;20034;-72
2023/07/24 13:00:49;;;;;;;10.23;7.38;;;;;;;;;;4992176;28;20027;-73
2023/07/24 13:03:16;;;;;;;10.40;8.20;;;;;;;;;;4992129;28;20015;-74
2023/07/24 13:05:42;;;;;;;12.65;7.97;;;;;;;;;;4992202;28;20029;-74
2023/07/24 13:08:08;;;;;;;12.40;7.65;;;;;;;;;;4992037;28;20502;-73
2023/07/24 13:10:34;;;;;;;14.93;8.65;;;;;;;;;;4992108;28;20043;-74
2023/07/24 13:13:01;;;;;;;12.52;8.27;;;;;;;;;;4992194;28;20022;-72
2023/07/24 13:15:27;;;;;;;11.30;7.75;;;;;;;;;;4974340;28;20058;-73
2023/07/24 13:17:53;;;;;;;12.63;7.47;;;;;;;;;;4990423;28;20470;-73
2023/07/24 13:20:19;;;;;;;12.15;8.25;;;;;;;;;;4991453;28;20052;-73
2023/07/24 13:22:46;;;;;;;12.38;8.25;;;;;;;;;;4991673;28;20018;-72
2023/07/24 13:25:12;;;;;;;15.25;7.80;;;;;;;;;;4991303;28;20039;-72
2023/07/24 13:27:38;;;;;;;13.00;7.30;;;;;;;;;;4989810;28;20053;-71
2023/07/24 13:30:05;;;;;;;9.05;7.20;;;;;;;;;;4989578;28;20379;-74
2023/07/24 13:32:31;;;;;;;9.90;6.75;;;;;;;;;;4991522;28;20442;-72
2023/07/24 13:34:57;;;;;;;10.10;6.63;;;;;;;;;;4991390;28;20073;-75
2023/07/24 13:37:24;;;;;;;8.38;6.65;;;;;;;;;;4991221;28;20027;-72
2023/07/24 13:39:51;;;;;;;7.72;5.45;;;;;;;;;;4991811;28;20023;-72
2023/07/24 13:42:17;;;;;;;8.02;5.97;;;;;;;;;;4991934;28;20084;-72
2023/07/24 13:44:43;;;;;;;10.55;5.40;;;;;;;;;;4991721;28;20097;-73
2023/07/24 13:47:09;;;;;;;8.35;5.60;;;;;;;;;;4973962;28;20037;-75
2023/07/24 13:49:35;;;;;;;6.93;5.25;;;;;;;;;;4991630;28;20022;-74
2023/07/24 13:52:01;;;;;;;5.57;4.55;;;;;;;;;;4991178;28;20023;-75
2023/07/24 13:54:27;;;;;;;10.50;5.30;;;;;;;;;;4989604;28;20418;-73
2023/07/24 13:56:53;;;;;;;6.35;4.85;;;;;;;;;;4989310;28;20046;-71
2023/07/24 13:59:19;;;;;;;6.15;4.57;;;;;;;;;;4989606;28;20670;-73
2023/07/24 14:01:45;;;;;;;7.50;4.70;;;;;;;;;;4989616;28;20030;-73
2023/07/24 14:04:12;;;;;;;7.03;4.35;;;;;;;;;;4989627;28;20030;-72
2023/07/24 14:06:38;;;;;;;5.00;4.03;;;;;;;;;;4989339;28;20050;-71
2023/07/24 14:09:04;;;;;;;5.60;4.07;;;;;;;;;;4991016;28;20030;-72
2023/07/24 14:11:30;;;;;;;5.22;3.83;;;;;;;;;;4991440;28;20497;-71
2023/07/24 14:13:56;;;;;;;4.18;3.50;;;;;;;;;;4991299;28;20066;-72
2023/07/24 14:16:22;;;;;;;3.95;3.50;;;;;;;;;;4973746;28;20053;-72
2023/07/24 14:18:48;;;;;;;4.70;3.70;;;;;;;;;;4991311;28;20074;-73
2023/07/24 14:21:14;;;;;;;5.15;3.65;;;;;;;;;;4992084;28;20389;-75
2023/07/24 14:23:40;;;;;;;6.00;4.03;;;;;;;;;;4995345;28;20026;-72
2023/07/24 14:26:06;;;;;;;4.70;3.70;;;;;;;;;;4994672;28;20099;-73
2023/07/24 14:28:32;;;;;;;4.68;3.75;;;;;;;;;;4994651;28;20445;-74
2023/07/24 14:30:58;;;;;;;6.30;3.70;;;;;;;;;;4994888;28;20505;-72
2023/07/24 14:33:25;;;;;;;5.68;4.40;;;;;;;;;;4994927;28;20089;-72
2023/07/24 14:35:51;;;;;;;5.63;4.28;;;;;;;;;;4994555;28;20122;-73
2023/07/24 14:38:17;;;;;;;5.95;5.05;;;;;;;;;;4994510;28;20027;-73